Data for 11/30/2008

Time Sea-Level Adjusted Pressure Absolute Pressure Temperature Relative Humidity Dew Point   
(mb) (inHg) (mb) (inHg) (C) (F) (%) (C) (F)
00:05 1022 30.18 851 25.13 3.9 38.9 75 -0.3 31.5
00:10 1022 30.18 851 25.13 4 39.2 74 -0.2 31.6
00:15 1022 30.18 851 25.13 4.1 39.3 74 -0.2 31.7
00:20 1022 30.18 851 25.13 4.1 39.3 74 -0.2 31.7
00:25 1022 30.18 851 25.13 4.1 39.4 74 -0.1 31.9
00:30 1021 30.15 851 25.13 4.1 39.3 74 -0.1 31.8
00:35 1021 30.15 851 25.13 4.1 39.4 74 -0.1 31.9
00:40 1021 30.15 851 25.13 4.1 39.3 74 -0.1 31.8
00:45 1021 30.15 851 25.13 4 39.2 75 -0 31.9
00:50 1021 30.15 851 25.13 3.9 39.1 75 -0 31.9
00:55 1021 30.15 851 25.13 3.9 39 75 -0.2 31.7
01:00 1021 30.15 850 25.1 3.9 39 75 -0.1 31.8
01:05 1021 30.15 850 25.1 3.9 39.1 75 -0.1 31.8
01:10 1021 30.15 851 25.13 3.9 38.9 75 -0.1 31.8
01:15 1022 30.18 851 25.13 3.8 38.8 76 -0.1 31.8
01:20 1022 30.18 851 25.13 3.7 38.7 76 -0.1 31.8
01:25 1022 30.18 851 25.13 3.6 38.5 77 -0.1 31.8
01:30 1022 30.18 851 25.13 3.4 38.1 78 -0.1 31.9
01:35 1022 30.18 851 25.13 3.2 37.7 79 -0.1 31.7
01:40 1022 30.18 851 25.13 3.1 37.7 79 -0.1 31.8
01:45 1022 30.18 851 25.13 3.1 37.5 80 -0.1 31.7
01:50 1022 30.18 851 25.13 3 37.5 80 -0.2 31.7
01:55 1022 30.18 851 25.13 3 37.4 80 -0.1 31.8
02:00 1022 30.18 851 25.13 3 37.3 80 -0.1 31.8
02:05 1022 30.18 851 25.13 3 37.4 80 -0.1 31.8
02:10 1022 30.18 852 25.16 3 37.3 81 -0 32
02:15 1022 30.18 852 25.16 2.9 37.1 81 -0.1 31.8
02:20 1023 30.21 852 25.16 3.1 37.5 79 -0.3 31.5
02:25 1023 30.21 852 25.16 3.3 37.9 78 -0.2 31.6
02:30 1023 30.21 852 25.16 3.3 37.9 78 -0.2 31.6
02:35 1023 30.21 852 25.16 3.3 37.9 78 -0.2 31.6
02:40 1023 30.21 852 25.16 3.3 38 77 -0.3 31.4
02:45 1023 30.21 852 25.16 3.4 38.2 77 -0.3 31.5
02:50 1023 30.21 852 25.16 3.4 38.2 77 -0.2 31.6
02:55 1023 30.21 852 25.16 3.3 38 78 -0.2 31.7
03:00 1023 30.21 852 25.16 3.2 37.7 79 -0.2 31.7
03:05 1023 30.21 852 25.16 3.1 37.5 79 -0.3 31.5
03:10 1023 30.21 852 25.16 3 37.4 79 -0.2 31.6
03:15 1023 30.21 852 25.16 3 37.4 79 -0.2 31.6
03:20 1023 30.21 852 25.16 3 37.3 80 -0.2 31.6
03:25 1023 30.21 852 25.16 2.9 37.3 80 -0.2 31.6
03:30 1023 30.21 852 25.16 2.9 37.1 80 -0.2 31.6
03:35 1023 30.21 852 25.16 2.8 37 81 -0.2 31.7
03:40 1023 30.21 852 25.16 2.6 36.6 82 -0.2 31.6
03:45 1023 30.21 852 25.16 2.5 36.6 82 -0.3 31.5
03:50 1023 30.21 852 25.16 2.6 36.7 80 -0.4 31.2
03:55 1023 30.21 852 25.16 3 37.3 79 -0.3 31.5
04:00 1023 30.21 852 25.16 2.9 37.3 80 -0.2 31.6
04:05 1023 30.21 852 25.16 3 37.4 79 -0.3 31.5
04:10 1023 30.21 852 25.16 3.1 37.7 78 -0.4 31.3
04:15 1023 30.21 852 25.16 3.1 37.6 78 -0.3 31.5
04:20 1023 30.21 852 25.16 2.9 37.3 79 -0.3 31.5
04:25 1023 30.21 852 25.16 2.8 37 79 -0.4 31.2
04:30 1023 30.21 852 25.16 2.8 37 79 -0.5 31.1
04:35 1023 30.21 852 25.16 2.7 36.9 80 -0.4 31.3
04:40 1023 30.21 852 25.16 2.6 36.6 80 -0.6 31
04:45 1023 30.21 852 25.16 2.7 36.9 79 -0.6 30.9
04:50 1023 30.21 852 25.16 2.8 37.1 78 -0.6 31
04:55 1023 30.21 852 25.16 2.8 37 79 -0.6 31
05:00 1023 30.21 852 25.16 2.6 36.8 79 -0.6 30.8
05:05 1023 30.21 852 25.16 2.6 36.7 79 -0.7 30.8
05:10 1023 30.21 852 25.16 2.6 36.6 79 -0.7 30.7
05:15 1023 30.21 853 25.19 2.6 36.7 79 -0.6 30.9
05:20 1023 30.21 853 25.19 2.6 36.7 79 -0.7 30.8
05:25 1023 30.21 853 25.19 2.7 36.9 79 -0.6 30.8
05:30 1023 30.21 853 25.19 2.8 37 78 -0.6 30.9
05:35 1023 30.21 852 25.16 2.8 37 78 -0.6 30.9
05:40 1023 30.21 852 25.16 2.8 37.1 78 -0.6 30.9
05:45 1023 30.21 852 25.16 2.8 37.1 78 -0.6 30.9
05:50 1023 30.21 852 25.16 2.8 37 78 -0.6 30.9
05:55 1023 30.21 852 25.16 2.8 37 79 -0.6 31
06:00 1023 30.21 852 25.16 2.9 37.2 78 -0.6 30.9
06:05 1023 30.21 852 25.16 3.1 37.5 77 -0.6 30.9
06:10 1023 30.21 852 25.16 3.1 37.6 77 -0.5 31.1
06:15 1023 30.21 852 25.16 3.1 37.6 77 -0.6 31
06:20 1023 30.21 852 25.16 3.1 37.6 77 -0.6 30.9
06:25 1023 30.21 852 25.16 3.2 37.7 77 -0.6 31
06:30 1023 30.21 852 25.16 3.1 37.6 77 -0.6 30.9
06:35 1023 30.21 852 25.16 3.2 37.7 76 -0.7 30.7
06:40 1023 30.21 852 25.16 3.3 37.9 75 -0.7 30.8
06:45 1023 30.21 852 25.16 3.3 37.9 75 -0.6 30.8
06:50 1023 30.21 852 25.16 3.3 37.9 75 -0.7 30.8
06:55 1023 30.21 852 25.16 3.2 37.8 75 -0.8 30.6
07:00 1023 30.21 852 25.16 3.3 37.9 75 -0.7 30.8
07:05 1023 30.21 852 25.16 3.4 38 74 -0.8 30.6
07:10 1023 30.21 852 25.16 3.4 38.1 75 -0.7 30.8
07:15 1023 30.21 852 25.16 3.4 38.1 74 -0.7 30.7
07:20 1023 30.21 852 25.16 3.4 38.1 75 -0.6 30.9
07:25 1023 30.21 853 25.19 3.4 38.1 75 -0.7 30.7
07:30 1023 30.21 853 25.19 3.5 38.3 74 -0.7 30.8
07:35 1023 30.21 853 25.19 3.5 38.2 74 -0.7 30.7
07:40 1023 30.21 853 25.19 3.5 38.4 74 -0.7 30.8
07:45 1023 30.21 853 25.19 3.6 38.5 74 -0.6 30.9
07:50 1023 30.21 852 25.16 3.6 38.5 74 -0.7 30.8
07:55 1023 30.21 853 25.19 3.5 38.3 74 -0.6 30.9
08:00 1023 30.21 853 25.19 3.4 38.2 75 -0.6 30.9
08:05 1023 30.21 853 25.19 3.4 38.1 74 -0.7 30.7
08:10 1023 30.21 853 25.19 3.6 38.4 73 -0.8 30.5
08:15 1024 30.24 853 25.19 3.7 38.7 72 -0.8 30.6
08:20 1023 30.21 853 25.19 3.8 38.8 73 -0.5 31.1
08:25 1024 30.24 853 25.19 3.7 38.6 73 -0.8 30.6
08:30 1024 30.24 853 25.19 3.6 38.5 74 -0.6 30.9
08:35 1024 30.24 853 25.19 3.5 38.3 74 -0.7 30.8
08:40 1024 30.24 853 25.19 3.5 38.3 72 -1 30.2
08:45 1024 30.24 853 25.19 3.8 38.8 72 -0.8 30.6
08:50 1024 30.24 853 25.19 3.8 38.9 73 -0.7 30.8
08:55 1024 30.24 853 25.19 3.7 38.7 73 -0.7 30.8
09:00 1024 30.24 853 25.19 3.8 38.9 73 -0.6 30.9
09:05 1024 30.24 853 25.19 3.7 38.7 75 -0.3 31.5
09:10 1024 30.24 853 25.19 3.4 38.1 76 -0.5 31.2
09:15 1024 30.24 853 25.19 3.3 38 76 -0.5 31.2
09:20 1024 30.24 853 25.19 3.4 38.1 75 -0.5 31
09:25 1024 30.24 853 25.19 3.5 38.2 76 -0.4 31.2
09:30 1024 30.24 853 25.19 3.6 38.5 75 -0.4 31.3
09:35 1024 30.24 853 25.19 3.8 38.8 75 -0.3 31.4
09:40 1024 30.24 853 25.19 3.8 38.8 75 -0.3 31.5
09:45 1024 30.24 853 25.19 3.7 38.7 76 -0.2 31.7
09:50 1024 30.24 853 25.19 3.8 38.9 75 -0.1 31.8
09:55 1024 30.24 853 25.19 3.8 38.9 74 -0.3 31.4
10:00 1024 30.24 853 25.19 4 39.2 74 -0.3 31.5
10:05 1024 30.24 853 25.19 4.1 39.4 72 -0.4 31.2
10:10 1024 30.24 853 25.19 4.3 39.7 72 -0.4 31.3
10:15 1024 30.24 853 25.19 4.4 39.9 72 -0.3 31.5
10:20 1024 30.24 853 25.19 4.4 39.9 72 -0.2 31.6
10:25 1024 30.24 853 25.19 4.4 39.8 72 -0.2 31.6
10:30 1024 30.24 853 25.19 4.5 40.1 71 -0.2 31.6
10:35 1024 30.24 853 25.19 4.6 40.3 71 -0.3 31.5
10:40 1024 30.24 853 25.19 4.6 40.3 71 -0.2 31.7
10:45 1024 30.24 854 25.22 4.5 40.2 73 0.1 32.2
10:50 1024 30.24 854 25.22 4.6 40.2 73 0.2 32.3
10:55 1024 30.24 854 25.22 4.5 40.2 71 -0.2 31.6
11:00 1024 30.24 853 25.19 4.5 40 72 -0.2 31.7
11:05 1024 30.24 853 25.19 4.5 40.1 74 0.2 32.4
11:10 1024 30.24 853 25.19 4.5 40.2 74 0.4 32.7
11:15 1024 30.24 853 25.19 4.7 40.4 71 -0.1 31.8
11:20 1024 30.24 853 25.19 4.9 40.8 70 -0 32
11:25 1024 30.24 853 25.19 5 40.9 71 0.2 32.4
11:30 1024 30.24 854 25.22 5 41.1 70 0.1 32.1
11:35 1024 30.24 853 25.19 5.1 41.2 71 0.4 32.6
11:40 1024 30.24 853 25.19 5 41 73 0.6 33.1
11:45 1024 30.24 853 25.19 5 41.1 73 0.5 32.9
11:50 1024 30.24 853 25.19 5.2 41.4 71 0.4 32.7
11:55 1024 30.24 853 25.19 5.3 41.6 70 0.4 32.7
12:00 1024 30.24 853 25.19 5.4 41.7 70 0.3 32.6
12:05 1024 30.24 853 25.19 5.4 41.8 68 0.1 32.2
12:10 1024 30.24 853 25.19 5.7 42.3 67 0.2 32.3
12:15 1024 30.24 853 25.19 5.9 42.5 67 0.3 32.5
12:20 1024 30.24 853 25.19 5.9 42.6 67 0.3 32.5
12:25 1024 30.24 853 25.19 6 42.8 67 0.4 32.6
12:30 1024 30.24 853 25.19 6.1 43 66 0.3 32.6
12:35 1024 30.24 853 25.19 6.3 43.3 65 0.2 32.4
12:40 1024 30.24 853 25.19 6.5 43.6 66 0.5 32.9
12:45 1024 30.24 853 25.19 6.4 43.5 66 0.6 33
12:50 1024 30.24 853 25.19 6.3 43.3 66 0.4 32.6
12:55 1024 30.24 853 25.19 6.6 43.9 65 0.5 32.9
13:00 1024 30.24 853 25.19 6.6 43.9 65 0.5 32.9
13:05 1024 30.24 853 25.19 6.6 43.9 65 0.4 32.8
13:10 1024 30.24 853 25.19 6.6 43.9 65 0.4 32.8
13:15 1024 30.24 853 25.19 6.8 44.3 64 0.6 33.1
13:20 1024 30.24 853 25.19 6.7 44.1 65 0.6 33.1
13:25 1024 30.24 853 25.19 6.7 44 65 0.5 33
13:30 1024 30.24 853 25.19 6.6 43.9 65 0.4 32.8
13:35 1024 30.24 853 25.19 6.6 43.8 64 0.3 32.6
13:40 1024 30.24 853 25.19 6.5 43.6 64 0.3 32.5
13:45 1024 30.24 853 25.19 6.5 43.7 65 0.4 32.7
13:50 1024 30.24 853 25.19 6.6 43.9 64 0.4 32.7
13:55 1024 30.24 853 25.19 6.5 43.8 65 0.4 32.8
14:00 1024 30.24 853 25.19 6.6 43.8 65 0.5 32.8
14:05 1024 30.24 853 25.19 6.6 43.9 65 0.6 33
14:10 1024 30.24 853 25.19 6.4 43.5 66 0.6 33.1
14:15 1024 30.24 853 25.19 6.5 43.7 66 0.7 33.2
14:20 1024 30.24 853 25.19 6.5 43.7 67 0.8 33.5
14:25 1024 30.24 853 25.19 6.5 43.6 67 0.7 33.3
14:30 1024 30.24 853 25.19 6.6 43.9 66 0.7 33.3
14:35 1024 30.24 853 25.19 6.3 43.4 70 1.3 34.4
14:40 1024 30.24 853 25.19 5.9 42.6 69 0.6 33
14:45 1024 30.24 853 25.19 5.8 42.4 71 0.9 33.6
14:50 1024 30.24 853 25.19 5.7 42.2 71 0.9 33.5
14:55 1024 30.24 853 25.19 5.7 42.3 69 0.5 33
15:00 1024 30.24 853 25.19 5.7 42.2 71 0.8 33.5
15:05 1024 30.24 853 25.19 5.6 42.1 68 0.2 32.4
15:10 1024 30.24 853 25.19 5.9 42.7 68 0.5 32.9
15:15 1024 30.24 853 25.19 5.8 42.5 70 0.7 33.3
15:20 1024 30.24 853 25.19 5.5 42 71 0.7 33.3
15:25 1024 30.24 853 25.19 5.4 41.7 72 0.8 33.5
15:30 1024 30.24 853 25.19 5.3 41.5 73 0.8 33.5
15:35 1024 30.24 853 25.19 5.2 41.4 73 0.8 33.4
15:40 1024 30.24 853 25.19 5.2 41.3 74 0.9 33.6
15:45 1024 30.24 853 25.19 5.1 41.1 75 0.9 33.7
15:50 1024 30.24 853 25.19 5 41.1 75 0.9 33.7
15:55 1024 30.24 853 25.19 5 41 75 0.9 33.6
16:00 1024 30.24 853 25.19 5 41 75 1 33.8
16:05 1024 30.24 853 25.19 5 41 76 1.2 34.1
16:10 1024 30.24 853 25.19 4.8 40.7 78 1.4 34.5
16:15 1024 30.24 853 25.19 4.7 40.4 79 1.3 34.3
16:20 1024 30.24 853 25.19 4.6 40.3 79 1.2 34.2
16:25 1024 30.24 853 25.19 4.6 40.3 79 1.2 34.2
16:30 1024 30.24 853 25.19 4.5 40 80 1.4 34.5
16:35 1024 30.24 853 25.19 4.4 40 79 1.1 34.1
16:40 1024 30.24 853 25.19 4.5 40.2 80 1.4 34.5
16:45 1024 30.24 853 25.19 4.5 40 80 1.2 34.2
16:50 1024 30.24 853 25.19 4.5 40.1 79 1.1 34
16:55 1024 30.24 853 25.19 4.5 40.2 79 1.2 34.2
17:00 1024 30.24 853 25.19 4.4 39.9 79 1.1 34
17:05 1024 30.24 853 25.19 4.3 39.8 80 1.1 34
17:10 1024 30.24 853 25.19 4.4 40 78 0.9 33.7
17:15 1024 30.24 853 25.19 4.6 40.2 77 1 33.7
17:20 1024 30.24 853 25.19 4.5 40.2 77 0.9 33.7
17:25 1024 30.24 853 25.19 4.5 40 78 0.9 33.7
17:30 1024 30.24 853 25.19 4.4 39.9 78 0.8 33.5
17:35 1024 30.24 853 25.19 4.6 40.2 76 0.7 33.2
17:40 1024 30.24 853 25.19 4.7 40.5 76 0.8 33.4
17:45 1024 30.24 853 25.19 4.8 40.7 75 0.8 33.4
17:50 1024 30.24 853 25.19 4.9 40.7 75 0.8 33.5
17:55 1024 30.24 853 25.19 4.8 40.7 75 0.7 33.3
18:00 1024 30.24 853 25.19 4.9 40.8 74 0.6 33.2
18:05 1024 30.24 853 25.19 4.9 40.8 75 0.8 33.4
18:10 1024 30.24 853 25.19 4.8 40.6 75 0.7 33.2
18:15 1024 30.24 853 25.19 4.7 40.5 74 0.5 32.9
18:20 1024 30.24 853 25.19 4.8 40.6 75 0.6 33.2
18:25 1024 30.24 853 25.19 4.9 40.9 73 0.5 32.9
18:30 1024 30.24 853 25.19 5.1 41.2 73 0.6 33.1
18:35 1024 30.24 853 25.19 5.2 41.4 72 0.5 32.9
18:40 1024 30.24 853 25.19 5.2 41.4 72 0.6 33.1
18:45 1024 30.24 853 25.19 5.1 41.2 73 0.7 33.2
18:50 1024 30.24 853 25.19 5.2 41.3 72 0.6 33.1
18:55 1024 30.24 853 25.19 5.2 41.4 71 0.4 32.8
19:00 1024 30.24 853 25.19 5.3 41.6 71 0.6 33
19:05 1024 30.24 853 25.19 5.3 41.5 71 0.6 33
19:10 1024 30.24 853 25.19 5.3 41.5 71 0.5 32.9
19:15 1024 30.24 853 25.19 5.3 41.5 71 0.4 32.8
19:20 1024 30.24 853 25.19 5.4 41.7 70 0.3 32.5
19:25 1024 30.24 853 25.19 5.5 42 69 0.3 32.6
19:30 1024 30.24 853 25.19 5.6 42 69 0.3 32.5
19:35 1024 30.24 853 25.19 5.6 42 69 0.3 32.5
19:40 1024 30.24 853 25.19 5.6 42.1 69 0.4 32.7
19:45 1024 30.24 853 25.19 5.5 42 69 0.4 32.7
19:50 1024 30.24 853 25.19 5.5 42 69 0.4 32.6
19:55 1024 30.24 853 25.19 5.6 42.2 69 0.4 32.8
20:00 1024 30.24 853 25.19 5.6 42.1 69 0.5 32.9
20:05 1024 30.24 853 25.19 5.5 41.9 71 0.6 33.1
20:10 1024 30.24 853 25.19 5.3 41.5 71 0.5 32.9
20:15 1024 30.24 853 25.19 5.3 41.6 71 0.5 32.8
20:20 1024 30.24 853 25.19 5.4 41.7 70 0.4 32.7
20:25 1024 30.24 853 25.19 5.2 41.4 71 0.3 32.5
20:30 1024 30.24 853 25.19 5.3 41.6 70 0.4 32.7
20:35 1024 30.24 853 25.19 5.4 41.7 70 0.4 32.7
20:40 1024 30.24 853 25.19 5.4 41.7 69 0.1 32.2
20:45 1023 30.21 853 25.19 5.5 41.9 68 0.1 32.2
20:50 1023 30.21 853 25.19 5.6 42 68 0.2 32.4
20:55 1023 30.21 853 25.19 5.5 41.8 70 0.4 32.7
21:00 1023 30.21 853 25.19 5.3 41.6 71 0.4 32.7
21:05 1023 30.21 853 25.19 5.3 41.5 71 0.4 32.7
21:10 1023 30.21 853 25.19 5.2 41.4 71 0.4 32.8
21:15 1023 30.21 852 25.16 5.1 41.1 71 0.3 32.6
21:20 1023 30.21 852 25.16 5.1 41.1 70 0.1 32.2
21:25 1023 30.21 852 25.16 5 41.1 72 0.4 32.7
21:30 1023 30.21 852 25.16 5.1 41.1 70 0.1 32.2
21:35 1023 30.21 852 25.16 5.1 41.2 71 0.4 32.7
21:40 1023 30.21 852 25.16 5 40.9 71 0.2 32.4
21:45 1023 30.21 852 25.16 4.9 40.9 70 -0 32
21:50 1023 30.21 852 25.16 5 41 69 -0.2 31.6
21:55 1023 30.21 852 25.16 5 41 69 -0.1 31.7
22:00 1023 30.21 852 25.16 5 41 70 -0.1 31.8
22:05 1023 30.21 852 25.16 4.9 40.8 69 -0.3 31.5
22:10 1023 30.21 852 25.16 4.8 40.7 70 -0.2 31.6
22:15 1023 30.21 852 25.16 4.7 40.5 71 -0.1 31.9
22:20 1023 30.21 852 25.16 4.4 40 69 -0.8 30.6
22:25 1023 30.21 852 25.16 4.5 40.1 69 -0.7 30.7
22:30 1023 30.21 852 25.16 4.5 40.2 68 -0.9 30.4
22:35 1023 30.21 852 25.16 4.5 40.2 68 -0.8 30.5
22:40 1023 30.21 852 25.16 4.5 40.1 67 -1.1 30
22:45 1023 30.21 852 25.16 4.6 40.2 68 -0.9 30.4
22:50 1023 30.21 852 25.16 4.5 40.1 67 -1 30.1
22:55 1023 30.21 852 25.16 4.4 39.9 67 -1.1 30
23:00 1023 30.21 852 25.16 4.2 39.5 68 -1.1 30
23:05 1023 30.21 852 25.16 4 39.2 69 -1.2 29.9
23:10 1023 30.21 852 25.16 3.9 39 70 -1.1 30
23:15 1023 30.21 852 25.16 3.8 38.8 70 -1.3 29.7
23:20 1023 30.21 852 25.16 3.9 39 70 -1 30.2
23:25 1023 30.21 852 25.16 3.5 38.4 72 -1.1 30
23:30 1023 30.21 852 25.16 3.9 39.1 69 -1.2 29.9
23:35 1022 30.18 852 25.16 4.1 39.4 69 -1 30.2
23:40 1022 30.18 852 25.16 4.1 39.4 69 -1 30.1
23:45 1022 30.18 852 25.16 4 39.3 70 -0.9 30.3
23:50 1022 30.18 852 25.16 3.9 39 70 -1 30.2
23:55 1022 30.18 851 25.13 3.6 38.5 71 -1.2 29.8
24:00 1022 30.18 851 25.13 4.1 39.4 69 -1.1 30.1